Time;durP1;ratioP1;P1;durP2;ratioP2;P2;SDS_P1;SDS_P2;PMS_P1;PMS_P2;Temp;Humidity;BMP_temperature;BMP_pressure;BME280_temperature;BME280_humidity;BME280_pressure;Samples;Min_cycle;Max_cycle;Signal;HPM_P1;HPM_P2
2023/06/23 00:00:44;;;;;;;39.95;23.70;;;;;;;;;;5030011;28;20049;-82
2023/06/23 00:03:10;;;;;;;38.13;23.40;;;;;;;;;;5014775;28;20104;-81
2023/06/23 00:05:37;;;;;;;41.50;23.10;;;;;;;;;;5027557;28;20111;-80
2023/06/23 00:08:05;;;;;;;28.60;19.45;;;;;;;;;;5011797;28;20029;-81
2023/06/23 00:10:33;;;;;;;32.83;19.27;;;;;;;;;;5020108;28;20022;-82
2023/06/23 00:12:59;;;;;;;29.05;18.25;;;;;;;;;;5014906;28;20015;-80
2023/06/23 00:15:25;;;;;;;26.77;17.88;;;;;;;;;;5013596;28;20049;-81
2023/06/23 00:17:59;;;;;;;28.73;18.42;;;;;;;;;;5017431;28;20034;-81
2023/06/23 00:20:25;;;;;;;32.67;19.88;;;;;;;;;;5017566;28;20046;-82
2023/06/23 00:22:53;;;;;;;30.15;18.40;;;;;;;;;;5027688;28;20027;-79
2023/06/23 00:25:19;;;;;;;37.42;21.05;;;;;;;;;;5032352;28;20029;-82
2023/06/23 00:27:45;;;;;;;31.80;19.45;;;;;;;;;;5033014;28;20026;-81
2023/06/23 00:30:12;;;;;;;30.20;18.63;;;;;;;;;;5017605;28;20027;-81
2023/06/23 00:32:38;;;;;;;31.33;19.25;;;;;;;;;;5022493;28;20151;-81
2023/06/23 00:35:07;;;;;;;30.30;18.60;;;;;;;;;;5013937;28;20147;-82
2023/06/23 00:37:37;;;;;;;31.40;18.13;;;;;;;;;;5015906;28;20014;-81
2023/06/23 00:40:04;;;;;;;30.05;19.90;;;;;;;;;;5016029;28;20019;-83
2023/06/23 00:42:31;;;;;;;31.48;18.80;;;;;;;;;;5018497;28;20014;-83
2023/06/23 00:45:00;;;;;;;27.00;16.42;;;;;;;;;;5019211;28;20037;-81
2023/06/23 00:47:26;;;;;;;29.90;17.50;;;;;;;;;;5015311;28;20033;-81
2023/06/23 00:49:52;;;;;;;26.70;16.38;;;;;;;;;;5016145;28;20065;-82
2023/06/23 00:52:23;;;;;;;37.22;18.80;;;;;;;;;;5014810;28;20022;-83
2023/06/23 00:54:50;;;;;;;28.92;16.73;;;;;;;;;;5015740;28;20022;-81
2023/06/23 00:57:17;;;;;;;26.50;16.88;;;;;;;;;;5063542;22;20037;-81
2023/06/23 00:59:43;;;;;;;21.55;14.70;;;;;;;;;;5032050;28;20034;-81
2023/06/23 01:02:09;;;;;;;26.17;15.95;;;;;;;;;;5017057;28;20101;-81
2023/06/23 01:04:37;;;;;;;28.80;15.45;;;;;;;;;;5015275;28;20022;-82
2023/06/23 01:07:26;;;;;;;20.17;14.02;;;;;;;;;;5035642;28;20067;-82
2023/06/23 01:09:55;;;;;;;20.40;14.10;;;;;;;;;;5033964;28;20026;-81
2023/06/23 01:12:27;;;;;;;22.08;13.85;;;;;;;;;;5020621;28;20083;-82
2023/06/23 01:14:53;;;;;;;;;;;;;;;;;;5029422;28;20025;-83
2023/06/23 01:17:26;;;;;;;22.50;13.20;;;;;;;;;;5017903;28;19902;-82
2023/06/23 01:19:56;;;;;;;21.23;13.20;;;;;;;;;;5028769;28;20069;-80
2023/06/23 01:22:39;;;;;;;22.63;12.52;;;;;;;;;;5020546;28;20018;-81
2023/06/23 01:25:24;;;;;;;19.95;12.50;;;;;;;;;;5034890;28;20029;-81
2023/06/23 01:27:50;;;;;;;23.13;11.95;;;;;;;;;;5030566;28;20042;-81
2023/06/23 01:30:17;;;;;;;19.50;12.35;;;;;;;;;;5014284;28;20014;-83
2023/06/23 01:32:49;;;;;;;17.80;12.23;;;;;;;;;;5018984;28;20030;-83
2023/06/23 01:35:21;;;;;;;17.13;10.57;;;;;;;;;;5020546;28;20034;-80
2023/06/23 01:37:48;;;;;;;16.65;10.25;;;;;;;;;;5020329;28;20026;-81
2023/06/23 01:40:22;;;;;;;17.75;10.82;;;;;;;;;;5037145;28;20022;-81
2023/06/23 01:42:52;;;;;;;15.25;10.02;;;;;;;;;;5028478;28;20022;-82
2023/06/23 01:45:18;;;;;;;15.63;8.15;;;;;;;;;;5045569;23;20035;-82
2023/06/23 01:47:51;;;;;;;14.82;8.90;;;;;;;;;;5044618;28;20050;-82
2023/06/23 01:50:18;;;;;;;;;;;;;;;;;;5046237;28;20064;-83
2023/06/23 01:52:44;;;;;;;9.85;7.20;;;;;;;;;;5060372;28;19902;-83
2023/06/23 01:55:11;;;;;;;15.82;7.85;;;;;;;;;;5045677;28;20025;-83
2023/06/23 01:57:40;;;;;;;13.48;7.75;;;;;;;;;;5053003;28;20025;-81
2023/06/23 02:00:28;;;;;;;12.95;7.25;;;;;;;;;;5047839;28;20025;-81
2023/06/23 02:02:56;;;;;;;12.23;7.38;;;;;;;;;;5044718;28;20022;-81
2023/06/23 02:05:23;;;;;;;11.50;6.70;;;;;;;;;;5045031;28;20030;-83
2023/06/23 02:07:51;;;;;;;11.82;6.13;;;;;;;;;;5051280;28;20052;-83
2023/06/23 02:10:18;;;;;;;10.32;6.57;;;;;;;;;;5050827;28;20005;-81
2023/06/23 02:12:45;;;;;;;11.68;6.30;;;;;;;;;;5061450;28;20037;-81
2023/06/23 02:15:13;;;;;;;12.65;6.38;;;;;;;;;;5048595;28;20082;-80
2023/06/23 02:17:41;;;;;;;12.10;6.00;;;;;;;;;;5045060;28;20032;-82
2023/06/23 02:20:14;;;;;;;11.20;6.72;;;;;;;;;;5042034;28;20037;-82
2023/06/23 02:22:43;;;;;;;15.05;6.72;;;;;;;;;;5049989;28;20018;-83
2023/06/23 02:25:10;;;;;;;10.43;6.85;;;;;;;;;;5048788;28;20026;-81
2023/06/23 02:27:37;;;;;;;11.30;6.32;;;;;;;;;;5048736;28;20046;-81
2023/06/23 02:30:04;;;;;;;11.52;6.43;;;;;;;;;;5053868;28;20394;-81
2023/06/23 02:32:30;;;;;;;11.95;7.38;;;;;;;;;;5045752;28;20030;-81
2023/06/23 02:34:57;;;;;;;13.25;6.80;;;;;;;;;;5048422;28;20093;-82
2023/06/23 02:37:24;;;;;;;11.85;6.80;;;;;;;;;;5049145;28;20010;-82
2023/06/23 02:39:54;;;;;;;11.18;6.95;;;;;;;;;;5047254;28;20014;-81
2023/06/23 02:42:21;;;;;;;14.43;7.97;;;;;;;;;;5046327;28;20120;-83
2023/06/23 02:45:08;;;;;;;13.30;7.85;;;;;;;;;;5045765;28;20010;-82
2023/06/23 02:47:37;;;;;;;14.57;7.22;;;;;;;;;;5045514;28;20037;-85
2023/06/23 02:57:49;;;;;;;12.15;8.70;;;;;;;;;;5011849;28;20037;-81
2023/06/23 03:00:19;;;;;;;18.92;9.38;;;;;;;;;;5028694;28;20034;-83
2023/06/23 03:02:47;;;;;;;16.83;9.30;;;;;;;;;;5014829;28;20038;-82
2023/06/23 03:05:13;;;;;;;16.58;9.18;;;;;;;;;;5014779;28;20018;-81
2023/06/23 03:07:40;;;;;;;12.75;8.43;;;;;;;;;;5028155;28;20051;-80
2023/06/23 03:10:06;;;;;;;16.58;8.57;;;;;;;;;;5018035;28;20038;-83
2023/06/23 03:20:30;;;;;;;17.80;9.25;;;;;;;;;;4962118;28;20040;-81
2023/06/23 03:23:02;;;;;;;15.18;9.65;;;;;;;;;;4978549;28;20043;-81
2023/06/23 03:25:29;;;;;;;21.63;10.48;;;;;;;;;;4971564;28;20016;-81
2023/06/23 03:27:56;;;;;;;17.52;11.05;;;;;;;;;;4961751;28;20093;-81
2023/06/23 03:33:01;;;;;;;17.80;10.88;;;;;;;;;;5032714;23;20053;-81
2023/06/23 03:35:32;;;;;;;23.08;11.50;;;;;;;;;;5031645;28;20014;-80
2023/06/23 03:38:02;;;;;;;22.63;12.50;;;;;;;;;;5023958;28;20034;-80
2023/06/23 03:40:32;;;;;;;20.45;10.65;;;;;;;;;;5026534;28;20021;-80
2023/06/23 03:43:19;;;;;;;15.23;10.98;;;;;;;;;;5028476;28;20123;-81
2023/06/23 03:45:46;;;;;;;16.45;10.93;;;;;;;;;;5029422;28;20147;-81
2023/06/23 03:48:13;;;;;;;20.65;12.30;;;;;;;;;;5026634;28;20165;-80
2023/06/23 03:50:44;;;;;;;20.25;11.45;;;;;;;;;;5029013;28;20011;-79
2023/06/23 03:53:11;;;;;;;21.45;12.73;;;;;;;;;;5043446;28;20033;-80
2023/06/23 03:55:39;;;;;;;23.48;12.95;;;;;;;;;;5041958;28;20014;-79
2023/06/23 03:58:09;;;;;;;24.55;13.85;;;;;;;;;;5035306;28;20053;-80
2023/06/23 04:00:36;;;;;;;21.83;13.77;;;;;;;;;;5042084;28;20034;-80
2023/06/23 04:03:06;;;;;;;26.38;14.57;;;;;;;;;;5036419;28;20011;-80
2023/06/23 04:05:33;;;;;;;25.70;15.05;;;;;;;;;;5027342;28;20049;-80
2023/06/23 04:08:00;;;;;;;26.02;14.57;;;;;;;;;;5028626;28;20029;-82
2023/06/23 04:10:28;;;;;;;24.15;13.85;;;;;;;;;;5032842;28;20050;-81
2023/06/23 04:12:54;;;;;;;22.20;14.40;;;;;;;;;;5034379;28;20028;-80
2023/06/23 04:15:23;;;;;;;27.63;14.30;;;;;;;;;;5033863;28;20010;-80
2023/06/23 04:17:49;;;;;;;22.77;13.68;;;;;;;;;;5044634;28;20003;-80
2023/06/23 04:20:16;;;;;;;23.23;14.55;;;;;;;;;;5029897;28;20082;-82
2023/06/23 04:22:43;;;;;;;23.45;13.38;;;;;;;;;;5032339;28;20025;-80
2023/06/23 04:25:28;;;;;;;24.30;14.43;;;;;;;;;;5062159;23;20137;-84
2023/06/23 04:28:23;;;;;;;22.33;15.07;;;;;;;;;;5037939;28;20042;-82
2023/06/23 04:31:04;;;;;;;21.10;12.95;;;;;;;;;;5052298;28;20014;-86
2023/06/23 04:33:31;;;;;;;24.30;14.85;;;;;;;;;;5039876;28;20021;-85
2023/06/23 04:41:39;;;;;;;30.92;17.60;;;;;;;;;;2448159;23;20457;-82
2023/06/23 04:44:08;;;;;;;26.98;16.35;;;;;;;;;;5068235;28;20089;-80
2023/06/23 04:46:36;;;;;;;29.13;17.30;;;;;;;;;;5078197;28;20100;-80
2023/06/23 04:49:07;;;;;;;25.70;17.10;;;;;;;;;;5070211;28;20026;-81
2023/06/23 04:51:36;;;;;;;24.70;16.02;;;;;;;;;;5061520;28;20025;-81
2023/06/23 04:54:04;;;;;;;27.63;17.63;;;;;;;;;;5062777;28;20034;-80
2023/06/23 04:56:33;;;;;;;22.50;14.75;;;;;;;;;;5066774;28;20048;-81
2023/06/23 04:59:01;;;;;;;31.25;17.30;;;;;;;;;;5061846;28;20008;-80
2023/06/23 05:01:28;;;;;;;28.05;18.05;;;;;;;;;;5078710;28;20009;-80
2023/06/23 05:03:56;;;;;;;26.65;16.65;;;;;;;;;;5080522;28;20152;-82
2023/06/23 05:06:23;;;;;;;30.63;16.55;;;;;;;;;;5067816;28;20028;-81
2023/06/23 05:08:50;;;;;;;25.38;16.95;;;;;;;;;;5068594;28;20068;-82
2023/06/23 05:11:17;;;;;;;24.05;16.77;;;;;;;;;;5061153;28;20056;-82
2023/06/23 05:13:43;;;;;;;26.10;16.98;;;;;;;;;;5061216;28;20037;-80
2023/06/23 05:16:11;;;;;;;26.60;17.55;;;;;;;;;;5067382;28;20020;-84
2023/06/23 05:18:39;;;;;;;26.67;17.75;;;;;;;;;;5061514;28;20024;-82
2023/06/23 05:21:05;;;;;;;31.02;18.27;;;;;;;;;;5057861;28;20097;-84
2023/06/23 05:23:36;;;;;;;25.83;16.00;;;16.90;99.90;;;;;;5065491;28;20049;-82
2023/06/23 05:26:07;;;;;;;22.55;16.13;;;16.90;99.90;;;;;;5059664;28;20041;-81
2023/06/23 05:28:36;;;;;;;25.33;16.27;;;16.80;99.90;;;;;;5060847;28;20033;-85
2023/06/23 05:31:06;;;;;;;26.95;17.05;;;16.90;99.90;;;;;;5078842;28;20021;-81
2023/06/23 05:33:37;;;;;;;26.15;16.42;;;16.90;99.90;;;;;;5062132;28;20116;-80
2023/06/23 05:36:07;;;;;;;26.35;16.75;;;17.10;99.90;;;;;;5073427;28;20072;-81
2023/06/23 05:38:33;;;;;;;29.35;17.67;;;;;;;;;;5061553;28;20017;-82
2023/06/23 05:40:59;;;;;;;25.90;17.02;;;;;;;;;;5064360;28;20043;-82
2023/06/23 05:43:25;;;;;;;25.38;16.98;;;;;;;;;;5063474;28;20043;-85
2023/06/23 05:45:52;;;;;;;24.77;16.92;;;;;;;;;;5062860;28;20040;-82
2023/06/23 05:48:27;;;;;;;28.60;17.23;;;;;;;;;;5063566;28;20103;-81
2023/06/23 05:50:54;;;;;;;23.77;16.55;;;;;;;;;;5064239;28;20032;-82
2023/06/23 05:53:21;;;;;;;28.80;17.10;;;;;;;;;;5060995;28;20029;-84
2023/06/23 05:55:56;;;;;;;31.50;18.13;;;;;;;;;;5066254;28;20025;-84
2023/06/23 05:58:35;;;;;;;30.27;18.15;;;;;;;;;;5069241;28;20009;-85
2023/06/23 06:01:08;;;;;;;28.08;17.65;;;;;;;;;;5065383;28;20053;-86
2023/06/23 06:03:37;;;;;;;29.65;17.20;;;;;;;;;;5057872;28;20129;-85
2023/06/23 06:06:36;;;;;;;33.60;18.42;;;;;;;;;;5066325;28;20010;-86
2023/06/23 06:12:01;;;;;;;28.20;19.23;;;;;;;;;;5294299;23;20105;-84
2023/06/23 06:14:30;;;;;;;29.90;19.20;;;;;;;;;;5048261;28;20044;-85
2023/06/23 06:17:12;;;;;;;29.80;19.25;;;;;;;;;;5124172;23;20052;-83
2023/06/23 06:25:35;;;;;;;26.48;18.08;;;;;;;;;;5115819;23;20045;-86
2023/06/23 06:28:04;;;;;;;27.80;17.98;;;;;;;;;;5065343;28;20086;-86
2023/06/23 06:30:32;;;;;;;27.10;18.40;;;;;;;;;;5054432;28;20021;-86
2023/06/23 06:33:00;;;;;;;32.55;19.85;;;;;;;;;;5054198;28;20044;-83
2023/06/23 06:35:27;;;;;;;30.67;20.60;;;;;;;;;;5050843;28;20070;-81
2023/06/23 06:37:56;;;;;;;27.67;18.17;;;;;;;;;;5058339;28;20025;-86
2023/06/23 06:40:23;;;;;;;27.65;19.17;;;;;;;;;;5037629;28;20094;-85
2023/06/23 06:42:52;;;;;;;30.48;19.88;;;;;;;;;;5051636;28;20127;-82
2023/06/23 06:45:18;;;;;;;33.05;17.95;;;;;;;;;;5054427;28;20029;-83
2023/06/23 06:47:46;;;;;;;30.20;18.52;;;;;;;;;;5047925;28;20087;-84
2023/06/23 06:53:25;;;;;;;25.70;17.00;;;;;;;;;;5014184;28;20109;-83
2023/06/23 06:55:51;;;;;;;30.60;18.02;;;;;;;;;;5006586;28;20038;-79
2023/06/23 06:58:17;;;;;;;27.00;17.75;;;;;;;;;;5006391;28;20041;-83
2023/06/23 07:00:43;;;;;;;23.08;16.92;;;;;;;;;;5012505;28;20026;-83
2023/06/23 07:03:10;;;;;;;26.45;17.50;;;;;;;;;;5011566;28;20022;-80
2023/06/23 07:05:36;;;;;;;32.28;17.15;;;;;;;;;;5006209;28;20052;-80
2023/06/23 07:08:03;;;;;;;25.00;18.10;;;;;;;;;;5008282;28;20026;-83
2023/06/23 07:10:30;;;;;;;31.17;17.33;;;;;;;;;;5013629;28;20168;-82
2023/06/23 07:13:05;;;;;;;21.38;15.38;;;;;;;;;;5013690;28;20056;-82
2023/06/23 07:15:32;;;;;;;29.73;17.85;;;;;;;;;;5023533;28;20040;-80
2023/06/23 07:17:58;;;;;;;26.33;15.70;;;;;;;;;;5024199;28;20041;-83
2023/06/23 07:20:24;;;;;;;22.83;16.77;;;;;;;;;;5013135;28;20136;-79
2023/06/23 07:22:50;;;;;;;21.20;15.75;;;;;;;;;;5030928;28;20037;-78
2023/06/23 07:25:16;;;;;;;24.15;16.00;;;;;;;;;;5028924;28;20047;-80
2023/06/23 07:27:42;;;;;;;22.40;16.48;;;;;;;;;;5025121;28;20065;-78
2023/06/23 07:30:09;;;;;;;25.55;15.25;;;;;;;;;;5060019;28;20037;-79
2023/06/23 07:32:35;;;;;;;23.23;14.27;;;;;;;;;;5068805;28;20025;-80
2023/06/23 07:35:03;;;;;;;22.45;15.25;;;;;;;;;;5065360;28;20027;-82
2023/06/23 07:37:29;;;;;;;26.25;16.42;;;;;;;;;;5073461;28;20032;-81
2023/06/23 07:39:56;;;;;;;24.17;15.95;;;;;;;;;;5059914;28;20043;-78
2023/06/23 07:42:22;;;;;;;21.08;14.27;;;;;;;;;;5071912;28;20028;-80
2023/06/23 07:44:49;;;;;;;23.50;14.05;;;;;;;;;;5066334;28;20131;-80
2023/06/23 07:47:15;;;;;;;22.30;15.68;;;;;;;;;;5067265;28;20048;-79
2023/06/23 07:49:41;;;;;;;21.30;15.10;;;;;;;;;;5061070;28;20076;-80
2023/06/23 07:52:07;;;;;;;21.00;14.95;;;;;;;;;;5065333;28;20041;-79
2023/06/23 07:54:33;;;;;;;21.45;14.48;;;;;;;;;;5075708;28;20025;-80
2023/06/23 07:57:02;;;;;;;21.67;14.82;;;;;;;;;;5066259;28;20128;-81
2023/06/23 07:59:28;;;;;;;20.45;14.68;;;;;;;;;;5086889;28;20009;-80
2023/06/23 08:01:54;;;;;;;23.27;15.25;;;;;;;;;;5068594;28;20025;-78
2023/06/23 08:04:22;;;;;;;21.85;14.10;;;;;;;;;;5061330;28;20025;-78
2023/06/23 08:06:48;;;;;;;21.25;13.95;;;;;;;;;;5065243;28;20059;-79
2023/06/23 08:09:15;;;;;;;18.13;12.80;;;;;;;;;;5084899;28;20084;-80
2023/06/23 08:11:41;;;;;;;18.83;12.60;;;;;;;;;;5066352;28;20033;-79
2023/06/23 08:14:07;;;;;;;18.70;12.82;;;;;;;;;;5064964;28;20044;-83
2023/06/23 08:16:33;;;;;;;17.00;12.50;;;;;;;;;;5061079;28;20029;-78
2023/06/23 08:19:00;;;;;;;20.25;12.98;;;;;;;;;;5069333;28;20028;-79
2023/06/23 08:21:26;;;;;;;20.02;13.00;;;;;;;;;;5061026;28;20033;-78
2023/06/23 08:23:52;;;;;;;23.35;14.73;;;;;;;;;;5067316;28;20045;-79
2023/06/23 08:26:18;;;;;;;19.25;13.48;;;;;;;;;;5065716;28;20059;-78
2023/06/23 08:28:44;;;;;;;21.95;14.02;;;;;;;;;;5065429;28;20052;-80
2023/06/23 08:31:11;;;;;;;20.55;12.57;;;;;;;;;;5061072;28;20032;-79
2023/06/23 08:33:37;;;;;;;17.85;12.07;;;;;;;;;;5073082;28;20032;-81
2023/06/23 08:36:03;;;;;;;15.48;11.73;;;;;;;;;;5064370;28;20119;-79
2023/06/23 08:38:29;;;;;;;26.00;12.75;;;;;;;;;;5061472;28;20025;-77
2023/06/23 08:40:55;;;;;;;19.27;13.75;;;;;;;;;;5068139;28;20021;-79
2023/06/23 08:43:25;;;;;;;20.27;13.05;;;;;;;;;;5068989;28;20013;-79
2023/06/23 08:45:55;;;;;;;15.25;11.98;;;;;;;;;;5070180;28;20079;-78
2023/06/23 08:48:24;;;;;;;13.77;10.30;;;;;;;;;;5069001;28;20115;-79
2023/06/23 08:50:50;;;;;;;19.75;11.23;;;;;;;;;;5061995;28;20033;-78
2023/06/23 08:53:16;;;;;;;18.88;11.27;;;;;;;;;;5061348;28;20096;-79
2023/06/23 08:55:42;;;;;;;18.67;11.30;;;;;;;;;;5067619;28;20024;-78
2023/06/23 08:58:09;;;;;;;20.13;11.30;;;;;;;;;;5070618;28;20021;-77
2023/06/23 09:00:35;;;;;;;13.45;10.25;;;;;;;;;;5068603;28;20028;-78
2023/06/23 09:03:01;;;;;;;15.73;11.50;;;;;;;;;;5070015;28;20033;-79
2023/06/23 09:05:28;;;;;;;28.38;10.88;;;;;;;;;;5074640;28;20028;-79
2023/06/23 09:07:54;;;;;;;15.05;11.10;;;;;;;;;;5067989;28;20049;-78
2023/06/23 09:10:20;;;;;;;16.25;11.60;;;;;;;;;;5068468;28;20021;-78
2023/06/23 09:13:11;;;;;;;14.13;10.05;;;;;;;;;;5065807;28;20085;-78
2023/06/23 09:15:38;;;;;;;10.70;7.72;;;;;;;;;;5059074;28;20033;-80
2023/06/23 09:18:05;;;;;;;15.50;8.95;;;;;;;;;;5066953;28;20037;-78
2023/06/23 09:20:31;;;;;;;13.60;9.32;;;;;;;;;;5065681;28;20021;-79
2023/06/23 09:23:00;;;;;;;9.68;8.10;;;;;;;;;;5193335;23;20068;-80
2023/06/23 09:25:45;;;;;;;13.27;8.70;;;;;;;;;;5068651;28;20013;-79
2023/06/23 09:28:31;;;;;;;20.88;10.95;;;;;;;;;;5064145;28;20066;-80
2023/06/23 09:30:58;;;;;;;13.20;7.90;;;;;;;;;;5060082;28;20040;-78
2023/06/23 09:33:25;;;;;;;14.02;8.48;;;;;;;;;;5065822;28;20025;-78
2023/06/23 09:35:55;;;;;;;11.50;7.38;;;;;;;;;;5065127;28;20040;-79
2023/06/23 09:38:25;;;;;;;12.43;6.75;;;;;;;;;;5070572;28;20097;-78
2023/06/23 09:41:02;;;;;;;11.05;7.15;;;;;;;;;;5071001;28;20028;-79
2023/06/23 09:43:28;;;;;;;10.38;7.05;;;;;;;;;;5065725;28;20026;-78
2023/06/23 09:45:54;;;;;;;12.80;7.75;;;;;;;;;;5066182;28;20013;-79
2023/06/23 09:48:20;;;;;;;10.38;6.45;;;;;;;;;;5068322;28;20029;-78
2023/06/23 09:50:46;;;;;;;10.00;7.50;;;;;;;;;;5068114;28;20022;-79
2023/06/23 09:53:20;;;;;;;15.60;8.20;;;;;;;;;;5073458;28;20029;-79
2023/06/23 09:55:46;;;;;;;9.40;6.05;;;;;;;;;;5061175;28;20025;-79
2023/06/23 09:58:13;;;;;;;12.88;7.13;;;;;;;;;;5066221;28;20111;-79
2023/06/23 10:00:39;;;;;;;15.23;8.10;;;;;;;;;;5079470;28;20029;-82
2023/06/23 10:03:05;;;;;;;10.02;6.20;;;;;;;;;;5075269;28;20031;-78
2023/06/23 10:05:35;;;;;;;12.98;7.18;;;;;;;;;;5063513;28;20098;-78
2023/06/23 10:08:07;;;;;;;11.05;7.22;;;;;;;;;;5065803;28;20037;-79
2023/06/23 10:10:33;;;;;;;11.05;5.75;;;;;;;;;;5068241;28;20036;-78
2023/06/23 10:13:00;;;;;;;14.30;7.80;;;;;;;;;;5064186;28;20032;-78
2023/06/23 10:15:28;;;;;;;11.27;7.47;;;;;;;;;;5070520;28;20080;-79
2023/06/23 10:17:54;;;;;;;9.93;7.32;;;;;;;;;;5069874;28;20088;-79
2023/06/23 10:20:20;;;;;;;13.38;7.38;;;;;;;;;;5066072;28;20033;-80
2023/06/23 10:22:47;;;;;;;10.77;7.35;;;;;;;;;;5065821;28;20464;-80
2023/06/23 10:25:13;;;;;;;14.65;6.78;;;;;;;;;;5053134;28;20041;-82
2023/06/23 10:27:41;;;;;;;9.43;6.57;;;;;;;;;;5053610;28;20052;-83
2023/06/23 10:30:11;;;;;;;8.57;6.63;;;;;;;;;;5070639;28;20024;-84
2023/06/23 10:32:38;;;;;;;11.90;6.72;;;;;;;;;;5057832;28;20037;-78
2023/06/23 10:35:07;;;;;;;11.30;7.68;;;;;;;;;;5062219;28;20057;-78
2023/06/23 10:37:33;;;;;;;9.18;6.47;;;;;;;;;;5057968;28;20017;-81
2023/06/23 10:40:04;;;;;;;13.10;7.22;;;;;;;;;;5059458;28;20043;-78
2023/06/23 10:42:32;;;;;;;8.80;6.68;;;;;;;;;;5062155;28;20096;-79
2023/06/23 10:44:59;;;;;;;9.20;7.22;;;;;;;;;;5081777;28;20059;-79
2023/06/23 10:47:25;;;;;;;9.63;7.47;;;;;;;;;;5063504;28;20040;-80
2023/06/23 10:49:51;;;;;;;8.13;6.38;;;;;;;;;;5052443;28;20104;-81
2023/06/23 10:52:17;;;;;;;8.02;5.97;;;;;;;;;;5053050;28;20029;-82
2023/06/23 10:54:45;;;;;;;10.07;6.57;;;;;;;;;;5058450;28;20365;-83
2023/06/23 10:57:12;;;;;;;12.90;6.00;;;;;;;;;;5050494;28;20022;-79
2023/06/23 10:59:43;;;;;;;8.00;5.22;;;;;;;;;;5087340;28;20032;-77
2023/06/23 11:02:10;;;;;;;8.30;5.55;;;;;;;;;;5060901;28;20025;-79
2023/06/23 11:04:38;;;;;;;10.40;5.10;;;;;;;;;;5058453;28;20021;-83
2023/06/23 11:07:09;;;;;;;10.23;5.15;;;;;;;;;;5051527;28;20033;-83
2023/06/23 11:10:08;;;;;;;7.45;4.60;;;;;;;;;;5058024;28;20017;-79
2023/06/23 11:12:37;;;;;;;7.05;5.10;;;;;;;;;;5057426;28;20048;-78
2023/06/23 11:15:10;;;;;;;8.95;4.90;;;;;;;;;;5067393;28;20041;-80
2023/06/23 11:17:40;;;;;;;5.03;3.70;;;;;;;;;;5050299;28;20017;-83
2023/06/23 11:20:09;;;;;;;5.70;4.00;;;;;;;;;;5061946;28;20021;-79
2023/06/23 11:22:38;;;;;;;11.10;5.03;;;;;;;;;;5060650;28;20131;-79
2023/06/23 11:25:04;;;;;;;7.18;4.30;;;;;;;;;;5066590;28;20013;-79
2023/06/23 11:27:30;;;;;;;7.05;4.63;;;;;;;;;;5050312;28;20040;-83
2023/06/23 11:30:17;;;;;;;8.57;4.05;;;;;;;;;;5049441;28;20461;-80
2023/06/23 11:32:43;;;;;;;7.03;3.97;;;;;;;;;;5045526;28;20021;-82
2023/06/23 11:35:09;;;;;;;6.22;3.78;;;;;;;;;;5053419;28;20036;-80
2023/06/23 11:37:36;;;;;;;4.18;3.15;;;;;;;;;;5058046;28;20040;-82
2023/06/23 11:40:05;;;;;;;5.70;3.20;;;;;;;;;;5051788;28;20017;-82
2023/06/23 11:42:31;;;;;;;6.80;3.38;;;;;;;;;;5055975;28;20111;-79
2023/06/23 11:44:58;;;;;;;6.22;3.33;;;;;;;;;;5048762;28;20029;-82
2023/06/23 11:47:25;;;;;;;4.93;2.80;;;;;;;;;;5047708;28;20162;-81
2023/06/23 11:49:51;;;;;;;4.53;3.30;;;;;;;;;;5045947;28;20021;-86
2023/06/23 11:52:18;;;;;;;6.50;4.15;;;;;;;;;;5041425;28;21464;-86
2023/06/23 11:54:47;;;;;;;7.00;4.47;;;;;;;;;;5055476;28;20020;-84
2023/06/23 11:57:15;;;;;;;4.90;3.55;;;;;;;;;;5055794;28;20025;-84
2023/06/23 11:59:41;;;;;;;4.43;2.85;;;;;;;;;;5042112;28;20032;-82
2023/06/23 12:02:07;;;;;;;5.40;4.05;;;;;;;;;;5039894;28;20033;-84
2023/06/23 12:04:33;;;;;;;4.50;2.63;;;;;;;;;;5060348;28;20020;-84
2023/06/23 12:07:00;;;;;;;5.80;2.65;;;;;;;;;;5055521;28;20430;-85
2023/06/23 12:09:26;;;;;;;16.13;2.78;;;;;;;;;;5043667;28;20026;-82
2023/06/23 12:11:53;;;;;;;6.90;3.08;;;;;;;;;;5052264;28;20036;-81
2023/06/23 12:14:19;;;;;;;3.95;2.30;;;;;;;;;;5043698;28;20025;-84
2023/06/23 12:16:45;;;;;;;3.03;2.42;;;;;;;;;;5057761;28;20086;-83
2023/06/23 12:19:11;;;;;;;3.22;2.60;;;;;;;;;;5050805;28;20029;-82
2023/06/23 12:21:40;;;;;;;2.60;2.05;;;;;;;;;;5051775;28;20044;-81
2023/06/23 12:24:10;;;;;;;2.95;2.10;;;;;;;;;;5052418;28;20444;-82
2023/06/23 12:26:39;;;;;;;4.13;2.80;;;;;;;;;;5055425;28;20528;-83
2023/06/23 12:29:11;;;;;;;6.03;3.25;;;;;;;;;;5058572;28;20083;-83
2023/06/23 12:31:39;;;;;;;6.28;2.78;;;;;;;;;;5050978;28;20013;-85
2023/06/23 12:34:05;;;;;;;2.78;2.30;;;;;;;;;;5048342;28;20025;-84
2023/06/23 12:36:31;;;;;;;23.60;5.43;;;;;;;;;;5048311;28;20021;-84
2023/06/23 12:38:58;;;;;;;5.32;2.78;;;;;;;;;;5048774;28;20032;-83
2023/06/23 12:41:26;;;;;;;3.03;2.38;;;;;;;;;;5045413;28;20125;-83
2023/06/23 12:43:55;;;;;;;5.40;3.05;;;;;;;;;;5057194;28;20442;-83
2023/06/23 12:46:25;;;;;;;3.65;2.10;;;;;;;;;;5054127;28;20090;-84
2023/06/23 12:48:51;;;;;;;3.35;2.38;;;;;;;;;;5050119;28;20029;-82
2023/06/23 12:51:18;;;;;;;4.65;2.72;;;;;;;;;;5051194;28;20057;-82
2023/06/23 12:53:44;;;;;;;4.75;2.72;;;;;;;;;;5051309;28;21718;-84
2023/06/23 12:56:11;;;;;;;6.00;3.03;;;;;;;;;;5051675;28;20381;-83
2023/06/23 12:58:39;;;;;;;3.17;2.05;;;;;;;;;;5069976;28;20029;-82
2023/06/23 13:01:08;;;;;;;4.43;3.05;;;;;;;;;;5053297;28;20108;-84
2023/06/23 13:03:34;;;;;;;3.42;2.45;;;;;;;;;;5047933;28;20433;-83
2023/06/23 13:06:00;;;;;;;6.05;2.75;;;;;;;;;;5046713;28;20036;-84
2023/06/23 13:08:26;;;;;;;5.65;2.00;;;;;;;;;;5052133;28;20112;-84
2023/06/23 13:10:52;;;;;;;2.90;2.05;;;;;;;;;;5069801;28;20041;-84
2023/06/23 13:13:18;;;;;;;4.32;2.15;;;;;;;;;;5046839;28;20358;-85
2023/06/23 13:15:48;;;;;;;4.57;2.08;;;;;;;;;;5050579;28;20152;-85
2023/06/23 13:21:13;;;;;;;3.80;2.47;;;;;;;;;;5052934;28;20067;-81
2023/06/23 13:23:39;;;;;;;5.85;2.40;;;;;;;;;;5045278;28;21733;-83
2023/06/23 13:26:05;;;;;;;3.05;2.38;;;;;;;;;;5053253;28;20040;-83
2023/06/23 13:28:33;;;;;;;3.63;2.20;;;;;;;;;;5061243;28;20476;-83
2023/06/23 13:30:58;;;;;;;3.17;2.10;;;;;;;;;;5054578;28;20025;-85
2023/06/23 13:33:24;;;;;;;2.85;2.15;;;;;;;;;;5054240;28;20031;-83
2023/06/23 13:35:51;;;;;;;2.58;1.85;;;;;;;;;;5052621;28;20040;-83
2023/06/23 13:38:17;;;;;;;3.10;2.20;;;;;;;;;;5046359;28;20025;-82
2023/06/23 13:40:43;;;;;;;3.85;2.40;;;;;;;;;;5056531;28;20119;-83
2023/06/23 13:43:09;;;;;;;4.28;2.47;;;;;;;;;;5044689;28;20335;-82
2023/06/23 13:45:34;;;;;;;3.58;2.05;;;;;;;;;;5046482;28;20036;-85
2023/06/23 13:48:02;;;;;;;6.55;2.58;;;;;;;;;;5047068;28;20028;-82
2023/06/23 13:50:28;;;;;;;4.22;2.00;;;;;;;;;;5053979;28;20049;-85
2023/06/23 13:52:56;;;;;;;2.67;2.28;;;;;;;;;;5044417;28;20017;-83
2023/06/23 13:55:23;;;;;;;6.47;2.40;;;;;;;;;;5048221;28;20109;-85
2023/06/23 13:57:49;;;;;;;11.00;3.30;;;;;;;;;;5048055;28;20083;-83
2023/06/23 14:00:26;;;;;;;4.40;2.28;;;;;;;;;;5047064;28;20021;-84
2023/06/23 14:02:52;;;;;;;4.57;2.10;;;;;;;;;;5055306;28;20043;-86
2023/06/23 14:05:18;;;;;;;2.90;2.22;;;;;;;;;;5047494;28;20033;-86
2023/06/23 14:07:44;;;;;;;4.57;2.38;;;;;;;;;;5049860;28;20471;-85
2023/06/23 14:10:10;;;;;;;2.30;2.10;;;;;;;;;;5051515;28;20025;-84
2023/06/23 14:12:36;;;;;;;18.65;3.45;;;;;;;;;;5056388;28;20021;-85
2023/06/23 14:15:02;;;;;;;2.97;2.33;;;;;;;;;;5049321;28;20420;-86
2023/06/23 14:17:29;;;;;;;2.80;2.50;;;;;;;;;;5055259;28;20450;-87
2023/06/23 14:19:56;;;;;;;3.67;2.63;;;;;;;;;;5048530;28;20040;-85
2023/06/23 14:22:22;;;;;;;7.85;2.10;;;;;;;;;;5044071;28;20034;-84
2023/06/23 14:24:48;;;;;;;6.90;3.05;;;;;;;;;;5056956;28;20022;-85
2023/06/23 14:27:14;;;;;;;3.97;2.75;;;;;;;;;;5057280;28;20365;-85
2023/06/23 14:29:40;;;;;;;4.63;2.42;;;;;;;;;;5049733;28;20029;-84
2023/06/23 14:32:06;;;;;;;3.88;2.67;;;;;;;;;;5052257;28;20029;-84
2023/06/23 14:34:32;;;;;;;4.03;2.88;;;;;;;;;;5056962;28;20016;-84
2023/06/23 14:36:58;;;;;;;3.90;2.83;;;;;;;;;;5051093;28;20029;-83
2023/06/23 14:39:24;;;;;;;4.53;3.15;;;;;;;;;;5043314;28;20822;-83
2023/06/23 14:41:50;;;;;;;4.53;2.50;;;;;;;;;;5042733;28;20099;-83
2023/06/23 14:44:16;;;;;;;3.60;3.25;;;;;;;;;;5044125;28;20068;-88
2023/06/23 14:46:42;;;;;;;3.60;2.75;;;;;;;;;;5045852;28;20548;-85
2023/06/23 14:49:10;;;;;;;3.50;3.00;;;;;;;;;;5050962;28;20032;-84
2023/06/23 14:51:36;;;;;;;7.55;3.75;;;;;;;;;;5066698;28;20039;-86
2023/06/23 14:54:02;;;;;;;6.65;3.28;;;;;;;;;;5045546;28;20437;-82
2023/06/23 14:56:31;;;;;;;5.85;3.25;;;;;;;;;;5043005;28;20021;-83
2023/06/23 14:58:58;;;;;;;3.28;2.90;;;;;;;;;;5041919;28;20048;-83
2023/06/23 15:01:24;;;;;;;3.60;3.10;;;;;;;;;;5047356;28;20369;-82
2023/06/23 15:03:54;;;;;;;6.82;4.00;;;;;;;;;;5055100;28;21267;-83
2023/06/23 15:06:20;;;;;;;4.82;3.15;;;;;;;;;;5049395;28;20053;-84
2023/06/23 15:08:46;;;;;;;9.15;3.03;;;;;;;;;;5048403;28;20489;-84
2023/06/23 15:11:12;;;;;;;4.88;3.13;;;;;;;;;;5051142;28;20021;-85